createdAt,value
2022-12-06T00:00:32.211Z,7.38
2022-12-06T00:03:39.731Z,7.39
2022-12-06T00:06:48.073Z,7.42
2022-12-06T00:09:54.190Z,7.46
2022-12-06T00:12:59.750Z,7.49
2022-12-06T00:16:07.585Z,7.52
2022-12-06T00:19:16.474Z,7.54
2022-12-06T00:22:22.034Z,7.57
2022-12-06T00:25:27.875Z,7.59
2022-12-06T00:28:33.738Z,7.61
2022-12-06T00:31:39.353Z,7.64
2022-12-06T00:34:45.038Z,7.65
2022-12-06T00:37:50.548Z,7.66
2022-12-06T00:41:03.771Z,7.66
2022-12-06T00:44:09.731Z,7.67
2022-12-06T00:47:15.326Z,7.68
2022-12-06T00:50:20.980Z,7.67
2022-12-06T00:53:26.934Z,7.65
2022-12-06T00:56:32.791Z,7.63
2022-12-06T00:59:38.340Z,7.63
2022-12-06T01:02:43.979Z,7.63
2022-12-06T01:05:52.060Z,7.64
2022-12-06T01:08:58.676Z,7.62
2022-12-06T01:12:04.365Z,7.63
2022-12-06T01:15:11.897Z,7.64
2022-12-06T01:18:17.678Z,7.66
2022-12-06T01:21:24.391Z,7.68
2022-12-06T01:24:30.005Z,7.70
2022-12-06T01:27:35.449Z,7.72
2022-12-06T01:30:43.433Z,7.73
2022-12-06T01:33:49.726Z,7.76
2022-12-06T01:36:55.275Z,7.77
2022-12-06T01:40:01.065Z,7.78
2022-12-06T01:43:06.987Z,7.79
2022-12-06T01:46:29.977Z,7.81
2022-12-06T01:49:37.639Z,7.82
2022-12-06T01:52:51.008Z,7.81
2022-12-06T01:55:57.139Z,7.82
2022-12-06T01:59:03.572Z,7.80
2022-12-06T02:02:10.191Z,7.79
2022-12-06T02:05:16.843Z,7.80
2022-12-06T02:08:23.263Z,7.81
2022-12-06T02:11:33.640Z,7.83
2022-12-06T02:14:41.758Z,7.86
2022-12-06T02:17:47.966Z,7.87
2022-12-06T02:21:01.299Z,7.87
2022-12-06T02:24:38.660Z,7.89
2022-12-06T02:28:20.828Z,7.86
2022-12-06T02:31:30.237Z,7.78
2022-12-06T02:34:45.415Z,7.74
2022-12-06T02:37:55.063Z,7.70
2022-12-06T02:41:04.767Z,7.69
2022-12-06T02:44:20.189Z,7.67
2022-12-06T02:47:31.780Z,7.68
2022-12-06T02:50:40.969Z,7.71
2022-12-06T02:53:49.733Z,7.74
2022-12-06T02:56:55.257Z,7.77
2022-12-06T03:00:01.001Z,7.79
2022-12-06T03:03:33.314Z,7.81
2022-12-06T03:06:58.982Z,7.82
2022-12-06T03:10:23.433Z,7.84
2022-12-06T03:13:35.787Z,7.88
2022-12-06T03:16:48.483Z,7.91
2022-12-06T03:20:03.882Z,7.93
2022-12-06T03:23:12.724Z,7.94
2022-12-06T03:26:24.971Z,7.95
2022-12-06T03:29:35.512Z,7.93
2022-12-06T03:32:46.203Z,7.93
2022-12-06T03:35:54.318Z,7.93
2022-12-06T03:39:02.892Z,7.91
2022-12-06T03:42:09.710Z,7.88
2022-12-06T03:45:16.466Z,7.83
2022-12-06T03:48:27.539Z,7.79
2022-12-06T03:51:36.137Z,7.75
2022-12-06T03:54:43.410Z,7.72
2022-12-06T03:57:49.035Z,7.73
2022-12-06T04:00:54.791Z,7.74
2022-12-06T04:04:00.875Z,7.66
2022-12-06T04:07:06.469Z,7.57
2022-12-06T04:10:13.308Z,7.53
2022-12-06T04:13:19.937Z,7.53
2022-12-06T04:16:43.120Z,7.53
2022-12-06T04:19:52.050Z,7.53
2022-12-06T04:23:07.007Z,7.52
2022-12-06T04:26:14.921Z,7.53
2022-12-06T04:29:38.187Z,7.53
2022-12-06T04:33:01.222Z,7.50
2022-12-06T04:36:25.228Z,7.50
2022-12-06T04:39:30.950Z,7.53
2022-12-06T04:42:54.143Z,7.57
2022-12-06T04:45:59.624Z,7.62
2022-12-06T04:49:05.179Z,7.65
2022-12-06T04:52:11.916Z,7.66
2022-12-06T04:55:18.067Z,7.70
2022-12-06T04:58:23.625Z,7.73
2022-12-06T05:01:29.149Z,7.76
2022-12-06T05:04:35.243Z,7.79
2022-12-06T05:07:40.742Z,7.81
2022-12-06T05:10:49.771Z,7.83
2022-12-06T05:13:55.372Z,7.84
2022-12-06T05:17:00.843Z,7.85
2022-12-06T05:20:07.990Z,7.86
2022-12-06T05:23:13.658Z,7.86
2022-12-06T05:26:20.744Z,7.87
2022-12-06T05:29:26.223Z,7.86
2022-12-06T05:32:31.740Z,7.86
2022-12-06T05:35:39.895Z,7.85
2022-12-06T05:38:51.130Z,7.84
2022-12-06T05:41:57.195Z,7.81
2022-12-06T05:45:02.743Z,7.80
2022-12-06T05:48:09.563Z,7.80
2022-12-06T05:51:15.345Z,7.81
2022-12-06T05:54:21.235Z,7.82
2022-12-06T05:57:26.783Z,7.82
2022-12-06T06:00:32.643Z,7.84
2022-12-06T06:03:42.448Z,7.86
2022-12-06T06:06:51.625Z,7.90
2022-12-06T06:09:57.260Z,7.90
2022-12-06T06:13:04.464Z,7.86
2022-12-06T06:16:10.262Z,7.82
2022-12-06T06:19:16.276Z,7.82
2022-12-06T06:22:23.261Z,7.81
2022-12-06T06:25:28.915Z,7.77
2022-12-06T06:28:34.465Z,7.74
2022-12-06T06:31:40.048Z,7.72
2022-12-06T06:34:45.590Z,7.73
2022-12-06T06:37:51.112Z,7.75
2022-12-06T06:40:56.660Z,7.78
2022-12-06T06:44:02.210Z,7.82
2022-12-06T06:47:07.964Z,7.81
2022-12-06T06:50:14.618Z,7.77
2022-12-06T06:53:20.604Z,7.74
2022-12-06T06:56:26.148Z,7.74
2022-12-06T06:59:31.698Z,7.74
2022-12-06T07:02:39.668Z,7.72
2022-12-06T07:05:45.332Z,7.72
2022-12-06T07:08:51.007Z,7.75
2022-12-06T07:11:57.683Z,7.79
2022-12-06T07:15:03.125Z,7.83
2022-12-06T07:18:08.784Z,7.85
2022-12-06T07:21:16.437Z,7.86
2022-12-06T07:24:22.133Z,7.82
2022-12-06T07:27:27.682Z,7.79
2022-12-06T07:30:33.304Z,7.77
2022-12-06T07:33:39.445Z,7.80
2022-12-06T07:36:44.946Z,7.84
2022-12-06T07:39:50.378Z,7.89
2022-12-06T07:43:13.353Z,7.91
2022-12-06T07:46:18.844Z,7.97
2022-12-06T07:49:24.797Z,7.98
2022-12-06T07:52:33.937Z,8.02
2022-12-06T07:55:39.466Z,8.05
2022-12-06T07:58:45.398Z,8.07
2022-12-06T08:01:51.336Z,8.03
2022-12-06T08:04:58.534Z,7.95
2022-12-06T08:08:04.139Z,7.84
2022-12-06T08:11:10.770Z,7.75
2022-12-06T08:14:16.959Z,7.70
2022-12-06T08:17:22.429Z,7.65
2022-12-06T08:20:27.931Z,7.63
2022-12-06T08:23:34.651Z,7.65
2022-12-06T08:26:40.354Z,7.68
2022-12-06T08:29:46.319Z,7.69
2022-12-06T08:32:51.759Z,7.68
2022-12-06T08:35:57.315Z,7.67
2022-12-06T08:39:02.916Z,7.69
2022-12-06T08:42:08.620Z,7.72
2022-12-06T08:45:14.204Z,7.77
2022-12-06T08:48:19.719Z,7.79
2022-12-06T08:51:25.574Z,7.82
2022-12-06T08:54:31.434Z,7.87
2022-12-06T08:57:36.973Z,7.91
2022-12-06T09:00:42.427Z,7.93
2022-12-06T09:03:48.163Z,7.95
2022-12-06T09:06:53.935Z,7.99
2022-12-06T09:09:59.897Z,8.04
2022-12-06T09:13:04.188Z,8.09
2022-12-06T09:16:15.794Z,8.10
2022-12-06T09:19:21.835Z,8.16
2022-12-06T09:22:27.520Z,8.20
2022-12-06T09:25:33.069Z,8.24
2022-12-06T09:28:41.074Z,8.27
2022-12-06T09:31:46.811Z,8.30
2022-12-06T09:34:52.862Z,8.32
2022-12-06T09:37:59.402Z,8.35
2022-12-06T09:41:12.852Z,8.36
2022-12-06T09:44:32.319Z,8.37
2022-12-06T09:47:53.836Z,8.39
2022-12-06T09:51:14.871Z,8.43
2022-12-06T09:54:33.935Z,8.44
2022-12-06T09:57:46.592Z,8.47
2022-12-06T10:01:01.256Z,8.50
2022-12-06T10:04:43.032Z,8.53
2022-12-06T10:07:55.954Z,8.56
2022-12-06T10:11:09.921Z,8.60
2022-12-06T10:14:31.646Z,8.63
2022-12-06T10:17:52.262Z,8.66
2022-12-06T10:21:10.800Z,8.69
2022-12-06T10:24:29.668Z,8.70
2022-12-06T10:27:40.687Z,8.73
2022-12-06T10:30:54.642Z,8.76
2022-12-06T10:34:06.052Z,8.78
2022-12-06T10:37:23.610Z,8.80
2022-12-06T10:40:38.169Z,8.81
2022-12-06T10:43:53.550Z,8.79
2022-12-06T10:47:04.868Z,8.78
2022-12-06T10:50:24.001Z,8.80
2022-12-06T10:53:35.083Z,8.82
2022-12-06T10:56:43.136Z,8.84
2022-12-06T10:59:55.183Z,8.88
2022-12-06T11:03:12.311Z,8.93
2022-12-06T11:06:27.031Z,8.98
2022-12-06T11:09:39.896Z,9.03
2022-12-06T11:12:46.671Z,9.07
2022-12-06T11:15:59.410Z,9.10
2022-12-06T11:19:21.833Z,9.11
2022-12-06T11:22:37.562Z,9.14
2022-12-06T11:26:00.175Z,9.17
2022-12-06T11:29:11.249Z,9.21
2022-12-06T11:32:19.361Z,9.23
2022-12-06T11:35:27.782Z,9.26
2022-12-06T11:38:34.754Z,9.28
2022-12-06T11:41:40.419Z,9.29
2022-12-06T11:45:01.370Z,9.31
2022-12-06T11:48:18.199Z,9.33
2022-12-06T11:51:25.741Z,9.34
2022-12-06T11:54:35.167Z,9.35
2022-12-06T11:57:46.254Z,9.36
2022-12-06T12:01:04.271Z,9.35
2022-12-06T12:04:27.867Z,9.36
2022-12-06T12:07:35.095Z,9.37
2022-12-06T12:10:44.392Z,9.37
2022-12-06T12:13:55.884Z,9.37
2022-12-06T12:17:04.808Z,9.37
2022-12-06T12:20:23.321Z,9.36
2022-12-06T12:23:33.999Z,9.34
2022-12-06T12:26:42.597Z,9.33
2022-12-06T12:29:48.309Z,9.33
2022-12-06T12:33:09.591Z,9.32
2022-12-06T12:36:23.057Z,9.30
2022-12-06T12:39:42.331Z,9.27
2022-12-06T12:42:48.951Z,9.28
2022-12-06T12:46:20.827Z,9.30
2022-12-06T12:49:31.362Z,9.31
2022-12-06T12:52:39.955Z,9.33
2022-12-06T12:55:46.706Z,9.35
2022-12-06T12:58:55.326Z,9.37
2022-12-06T13:02:06.766Z,9.39
2022-12-06T13:05:35.481Z,9.40
2022-12-06T13:08:42.627Z,9.40
2022-12-06T13:11:54.075Z,9.41
2022-12-06T13:15:05.193Z,9.42
2022-12-06T13:18:15.251Z,9.42
2022-12-06T13:21:24.348Z,9.41
2022-12-06T13:24:32.586Z,9.41
2022-12-06T13:27:41.661Z,9.41
2022-12-06T13:30:50.397Z,9.42
2022-12-06T13:34:01.631Z,9.43
2022-12-06T13:37:27.248Z,9.43
2022-12-06T13:40:55.947Z,9.41
2022-12-06T13:44:01.594Z,9.35
2022-12-06T13:50:56.165Z,9.31
2022-12-06T13:54:37.609Z,9.30
2022-12-06T13:57:43.362Z,9.29
2022-12-06T14:00:53.861Z,9.28
2022-12-06T14:04:01.316Z,9.25
2022-12-06T14:10:15.643Z,9.25
2022-12-06T14:13:22.880Z,9.26
2022-12-06T14:16:32.619Z,9.28
2022-12-06T14:19:45.574Z,9.30
2022-12-06T14:22:51.372Z,9.30
2022-12-06T14:26:14.016Z,9.27
2022-12-06T14:29:24.828Z,9.25
2022-12-06T14:32:39.082Z,9.22
2022-12-06T14:35:52.470Z,9.16
2022-12-06T14:39:02.499Z,9.10
2022-12-06T14:42:37.753Z,9.07
2022-12-06T14:45:45.190Z,9.04
2022-12-06T14:49:08.523Z,9.01
2022-12-06T14:52:23.208Z,8.98
2022-12-06T14:55:31.007Z,8.96
2022-12-06T14:58:38.016Z,8.95
2022-12-06T15:01:54.351Z,8.94
2022-12-06T15:05:00.687Z,8.94
2022-12-06T15:08:18.298Z,8.93
2022-12-06T15:12:00.330Z,8.89
2022-12-06T15:15:07.081Z,8.87
2022-12-06T15:18:25.559Z,8.86
2022-12-06T15:21:31.195Z,8.83
2022-12-06T15:24:36.780Z,8.78
2022-12-06T15:27:42.348Z,8.75
2022-12-06T15:30:48.311Z,8.75
2022-12-06T15:33:54.125Z,8.75
2022-12-06T15:37:36.850Z,8.76
2022-12-06T15:40:26.830Z,8.77
2022-12-06T15:43:34.901Z,8.78
2022-12-06T15:46:40.988Z,8.81
2022-12-06T15:49:46.751Z,8.83
2022-12-06T15:52:52.282Z,8.85
2022-12-06T15:55:58.467Z,8.88
2022-12-06T15:59:04.004Z,8.89
2022-12-06T16:02:15.903Z,8.90
2022-12-06T16:05:21.716Z,8.90
2022-12-06T16:08:27.375Z,8.91
2022-12-06T16:11:33.070Z,8.92
2022-12-06T16:14:38.626Z,8.93
2022-12-06T16:17:44.275Z,8.92
2022-12-06T16:20:50.507Z,8.90
2022-12-06T16:24:13.073Z,8.87
2022-12-06T16:27:19.970Z,8.85
2022-12-06T16:30:35.272Z,8.84
2022-12-06T16:33:41.715Z,8.84
2022-12-06T16:37:02.030Z,8.84
2022-12-06T16:40:19.928Z,8.84
2022-12-06T16:43:25.711Z,8.80
2022-12-06T16:46:33.829Z,8.78
2022-12-06T16:49:47.007Z,8.78
2022-12-06T16:52:55.209Z,8.77
2022-12-06T16:56:00.806Z,8.77
2022-12-06T16:59:06.874Z,8.76
2022-12-06T17:02:24.510Z,8.76
2022-12-06T17:05:30.517Z,8.75
2022-12-06T17:08:36.264Z,8.74
2022-12-06T17:12:00.199Z,8.72
2022-12-06T17:15:06.583Z,8.70
2022-12-06T17:18:10.679Z,8.69
2022-12-06T17:21:17.375Z,8.64
2022-12-06T17:24:25.668Z,8.64
2022-12-06T17:27:31.321Z,8.64
2022-12-06T17:30:36.974Z,8.63
2022-12-06T17:33:42.706Z,8.63
2022-12-06T17:36:48.648Z,8.63
2022-12-06T17:39:54.230Z,8.62
2022-12-06T17:43:02.519Z,8.63
2022-12-06T17:46:11.430Z,8.64
2022-12-06T17:49:19.361Z,8.62
2022-12-06T17:52:25.341Z,8.58
2022-12-06T17:55:31.089Z,8.55
2022-12-06T17:58:37.043Z,8.51
2022-12-06T18:02:14.851Z,8.49
2022-12-06T18:05:10.477Z,8.41
2022-12-06T18:08:16.210Z,8.35
2022-12-06T18:11:23.876Z,8.30
2022-12-06T18:14:29.889Z,8.29
2022-12-06T18:17:35.540Z,8.30
2022-12-06T18:20:43.286Z,8.31
2022-12-06T18:24:19.818Z,8.27
2022-12-06T18:27:16.356Z,8.24
2022-12-06T18:30:22.315Z,8.16
2022-12-06T18:33:31.114Z,8.11
2022-12-06T18:36:36.896Z,8.05
2022-12-06T18:39:42.441Z,8.01
2022-12-06T18:42:48.032Z,7.97
2022-12-06T18:46:00.357Z,7.96
2022-12-06T18:49:06.188Z,7.97
2022-12-06T18:52:12.834Z,7.99
2022-12-06T18:55:18.861Z,8.01
2022-12-06T18:58:24.551Z,8.02
2022-12-06T19:01:33.674Z,8.04
2022-12-06T19:04:39.298Z,8.06
2022-12-06T19:07:45.854Z,8.03
2022-12-06T19:10:51.479Z,8.04
2022-12-06T19:13:58.423Z,8.04
2022-12-06T19:17:04.271Z,8.05
2022-12-06T19:20:11.235Z,8.06
2022-12-06T19:23:17.095Z,8.02
2022-12-06T19:26:23.425Z,8.01
2022-12-06T19:29:27.919Z,7.99
2022-12-06T19:32:34.264Z,7.95
2022-12-06T19:35:38.308Z,7.96
2022-12-06T19:38:44.577Z,7.94
2022-12-06T19:42:04.869Z,7.93
2022-12-06T19:45:12.551Z,7.92
2022-12-06T19:48:18.222Z,7.90
2022-12-06T19:51:24.408Z,7.90
2022-12-06T19:54:32.986Z,7.88
2022-12-06T19:57:40.422Z,7.86
2022-12-06T20:00:50.311Z,7.84
2022-12-06T20:03:56.511Z,7.84
2022-12-06T20:07:02.488Z,7.79
2022-12-06T20:10:10.148Z,7.74
2022-12-06T20:13:15.687Z,7.71
2022-12-06T20:16:21.412Z,7.69
2022-12-06T20:19:27.541Z,7.65
2022-12-06T20:22:33.210Z,7.61
2022-12-06T20:25:38.792Z,7.58
2022-12-06T20:28:45.221Z,7.59
2022-12-06T20:31:52.101Z,7.61
2022-12-06T20:34:57.823Z,7.65
2022-12-06T20:38:03.497Z,7.66
2022-12-06T20:41:14.473Z,7.63
2022-12-06T20:44:21.355Z,7.62
2022-12-06T20:47:27.072Z,7.64
2022-12-06T20:50:32.657Z,7.65
2022-12-06T20:53:38.415Z,7.65
2022-12-06T20:56:44.338Z,7.63
2022-12-06T20:59:50.023Z,7.60
2022-12-06T21:02:55.735Z,7.58
2022-12-06T21:06:02.573Z,7.58
2022-12-06T21:09:08.145Z,7.58
2022-12-06T21:12:13.721Z,7.58
2022-12-06T21:15:19.615Z,7.53
2022-12-06T21:18:28.572Z,7.49
2022-12-06T21:21:37.674Z,7.44
2022-12-06T21:24:43.327Z,7.39
2022-12-06T21:27:48.923Z,7.37
2022-12-06T21:30:55.596Z,7.37
2022-12-06T21:34:01.927Z,7.38
2022-12-06T21:37:06.036Z,7.39
2022-12-06T21:40:13.700Z,7.33
2022-12-06T21:43:19.265Z,7.35
2022-12-06T21:46:26.929Z,7.37
2022-12-06T21:49:32.555Z,7.38
2022-12-06T21:52:38.290Z,7.40
2022-12-06T21:55:43.944Z,7.41
2022-12-06T21:58:50.422Z,7.45
2022-12-06T22:01:56.014Z,7.47
2022-12-06T22:05:01.671Z,7.48
2022-12-06T22:08:08.075Z,7.49
2022-12-06T22:11:16.060Z,7.46
2022-12-06T22:14:22.051Z,7.46
2022-12-06T22:17:28.014Z,7.46
2022-12-06T22:20:33.612Z,7.46
2022-12-06T22:23:39.627Z,7.49
2022-12-06T22:26:45.195Z,7.51
2022-12-06T22:29:50.820Z,7.51
2022-12-06T22:32:56.370Z,7.50
2022-12-06T22:36:03.561Z,7.50
2022-12-06T22:39:09.340Z,7.52
2022-12-06T22:42:14.864Z,7.57
2022-12-06T22:45:20.539Z,7.61
2022-12-06T22:48:26.302Z,7.63
2022-12-06T22:51:33.301Z,7.65
2022-12-06T22:54:39.210Z,7.65
2022-12-06T22:57:44.864Z,7.66
2022-12-06T23:00:50.518Z,7.67
2022-12-06T23:03:57.104Z,7.68
2022-12-06T23:07:03.304Z,7.69
2022-12-06T23:10:11.660Z,7.70
2022-12-06T23:13:17.214Z,7.70
2022-12-06T23:16:24.787Z,7.71
2022-12-06T23:19:30.566Z,7.69
2022-12-06T23:22:36.128Z,7.70
2022-12-06T23:25:41.770Z,7.71
2022-12-06T23:28:48.132Z,7.73
2022-12-06T23:31:52.316Z,7.78
2022-12-06T23:34:57.948Z,7.80
2022-12-06T23:38:03.479Z,7.87
2022-12-06T23:41:12.275Z,7.92
2022-12-06T23:44:18.039Z,7.95
2022-12-06T23:47:23.630Z,7.97
2022-12-06T23:50:29.235Z,7.98
2022-12-06T23:53:35.913Z,7.99
2022-12-06T23:56:42.997Z,7.97
2022-12-06T23:59:48.650Z,7.93
